Time;durP1;ratioP1;P1;durP2;ratioP2;P2;SDS_P1;SDS_P2;PMS_P1;PMS_P2;Temp;Humidity;BMP_temperature;BMP_pressure;BME280_temperature;BME280_humidity;BME280_pressure;Samples;Min_cycle;Max_cycle;Signal;HPM_P1;HPM_P2
2021/05/27 00:01:55;;;;;;;;;;;19.50;56.70;;;;;;5009204;28;19918;-57
2021/05/27 00:04:20;;;;;;;;;;;19.50;56.80;;;;;;5017281;28;20394;-57
2021/05/27 00:06:46;;;;;;;;;;;19.50;56.70;;;;;;5011109;28;19963;-56
2021/05/27 00:09:11;;;;;;;;;;;19.50;56.70;;;;;;5012135;28;19921;-56
2021/05/27 00:11:37;;;;;;;;;;;19.50;56.70;;;;;;5015485;28;19943;-64
2021/05/27 00:14:02;;;;;;;;;;;19.50;56.70;;;;;;5017939;28;19928;-59
2021/05/27 00:16:28;;;;;;;;;;;19.50;56.60;;;;;;5015758;28;19917;-57
2021/05/27 00:18:53;;;;;;;;;;;19.50;56.70;;;;;;5015103;28;19921;-56
2021/05/27 00:21:19;;;;;;;;;;;19.40;56.70;;;;;;5007765;28;20610;-57
2021/05/27 00:23:45;;;;;;;;;;;19.50;56.60;;;;;;5002963;28;19917;-59
2021/05/27 00:26:10;;;;;;;;;;;19.50;56.60;;;;;;5011345;28;19922;-57
2021/05/27 00:28:37;;;;;;;;;;;19.50;56.60;;;;;;5016790;28;20011;-58
2021/05/27 00:31:02;;;;;;;;;;;19.40;56.60;;;;;;5018412;28;19917;-53
2021/05/27 00:33:28;;;;;;;;;;;19.40;56.50;;;;;;5017998;28;19921;-57
2021/05/27 00:35:53;;;;;;;;;;;19.40;56.60;;;;;;4991280;28;20393;-58
2021/05/27 00:38:18;;;;;;;;;;;19.40;56.60;;;;;;5014121;28;19951;-59
2021/05/27 00:40:44;;;;;;;;;;;19.50;56.60;;;;;;5017235;28;19917;-56
2021/05/27 00:43:09;;;;;;;;;;;19.50;56.70;;;;;;5006475;28;19925;-56
2021/05/27 00:45:35;;;;;;;;;;;19.40;56.60;;;;;;5019169;28;20691;-59
2021/05/27 00:48:00;;;;;;;;;;;19.40;56.60;;;;;;5020092;28;19917;-55
2021/05/27 00:50:26;;;;;;;;;;;19.40;56.50;;;;;;5015767;28;20490;-58
2021/05/27 00:52:52;;;;;;;;;;;19.40;56.60;;;;;;5015670;28;19918;-57
2021/05/27 00:55:18;;;;;;;;;;;19.40;57.20;;;;;;5009897;28;20000;-59
2021/05/27 00:57:43;;;;;;;;;;;19.40;56.50;;;;;;5003011;28;20039;-60
2021/05/27 01:00:10;;;;;;;;;;;19.40;56.50;;;;;;5014730;28;19917;-58
2021/05/27 01:02:35;;;;;;;;;;;19.40;57.40;;;;;;4979366;28;20833;-60
2021/05/27 01:05:00;;;;;;;;;;;19.40;56.50;;;;;;5011977;28;19925;-56
2021/05/27 01:07:26;;;;;;;;;;;19.40;56.60;;;;;;5011749;28;20587;-59
2021/05/27 01:09:51;;;;;;;;;;;19.40;56.60;;;;;;5019632;28;19936;-60
2021/05/27 01:12:17;;;;;;;;;;;19.40;56.60;;;;;;5015307;28;20558;-57
2021/05/27 01:17:26;;;;;;;;;;;19.40;56.60;;;;;;5018040;28;19924;-58
2021/05/27 01:19:52;;;;;;;;;;;19.40;56.60;;;;;;4995343;28;19925;-57
2021/05/27 01:22:18;;;;;;;;;;;19.40;56.50;;;;;;5013770;28;20008;-57
2021/05/27 01:24:44;;;;;;;;;;;19.40;56.50;;;;;;5016524;28;19921;-57
2021/05/27 01:27:09;;;;;;;;;;;19.40;56.50;;;;;;5003142;28;20366;-60
2021/05/27 01:29:35;;;;;;;;;;;19.40;56.50;;;;;;5001574;28;19917;-55
2021/05/27 01:32:00;;;;;;;;;;;19.40;56.60;;;;;;5017546;28;19917;-59
2021/05/27 01:34:25;;;;;;;;;;;19.40;56.50;;;;;;5020644;28;19928;-58
2021/05/27 01:36:51;;;;;;;;;;;19.30;56.50;;;;;;5021891;28;20610;-60
2021/05/27 01:39:16;;;;;;;;;;;19.30;56.50;;;;;;5015817;28;19929;-59
2021/05/27 01:41:42;;;;;;;;;;;19.30;56.40;;;;;;5020151;28;19924;-59
2021/05/27 01:44:07;;;;;;;;;;;19.30;56.50;;;;;;5015626;28;20025;-57
2021/05/27 01:46:33;;;;;;;;;;;19.30;56.50;;;;;;5013565;28;19921;-59
2021/05/27 01:48:58;;;;;;;;;;;19.30;56.50;;;;;;5019719;28;19973;-59
2021/05/27 01:51:24;;;;;;;;;;;19.30;56.40;;;;;;5019551;28;19935;-59
2021/05/27 01:53:49;;;;;;;;;;;19.30;56.40;;;;;;5022688;28;19925;-59
2021/05/27 01:56:15;;;;;;;;;;;19.30;56.40;;;;;;5013757;28;20321;-60
2021/05/27 01:58:40;;;;;;;;;;;19.30;56.40;;;;;;5019151;28;19927;-55
2021/05/27 02:01:06;;;;;;;;;;;19.30;56.50;;;;;;5013657;28;20289;-57
2021/05/27 02:03:31;;;;;;;;;;;19.30;56.40;;;;;;5015517;28;19925;-59
2021/05/27 02:05:56;;;;;;;;;;;19.40;56.40;;;;;;5017220;28;19964;-57
2021/05/27 02:08:22;;;;;;;;;;;19.30;56.30;;;;;;5016493;28;19932;-60
2021/05/27 02:10:47;;;;;;;;;;;19.30;56.30;;;;;;5015503;28;19920;-60
2021/05/27 02:13:13;;;;;;;;;;;19.30;56.30;;;;;;5021085;28;19921;-59
2021/05/27 02:15:39;;;;;;;;;;;19.30;56.40;;;;;;5019273;28;19917;-59
2021/05/27 02:18:05;;;;;;;;;;;19.30;56.40;;;;;;5016420;28;19980;-55
2021/05/27 02:20:30;;;;;;;;;;;19.30;56.40;;;;;;5021813;28;20417;-60
2021/05/27 02:22:55;;;;;;;;;;;19.30;56.30;;;;;;5015660;28;19923;-59
2021/05/27 02:25:21;;;;;;;;;;;19.30;56.30;;;;;;5012120;28;19918;-59
2021/05/27 02:27:46;;;;;;;;;;;19.30;56.30;;;;;;5022861;28;19921;-57
2021/05/27 02:30:12;;;;;;;;;;;19.30;56.30;;;;;;5014238;28;19924;-61
2021/05/27 02:32:38;;;;;;;;;;;19.30;56.30;;;;;;5020313;28;19925;-57
2021/05/27 02:35:03;;;;;;;;;;;19.30;56.30;;;;;;5010011;28;19929;-56
2021/05/27 02:37:29;;;;;;;;;;;19.30;56.30;;;;;;5017329;28;19923;-60
2021/05/27 02:39:54;;;;;;;;;;;19.20;56.30;;;;;;5004986;28;20255;-58
2021/05/27 02:42:20;;;;;;;;;;;19.30;56.30;;;;;;5011828;28;19917;-57
2021/05/27 02:44:47;;;;;;;;;;;19.30;56.30;;;;;;5021758;28;20314;-58
2021/05/27 02:47:12;;;;;;;;;;;19.30;56.30;;;;;;5018523;28;19921;-59
2021/05/27 02:49:38;;;;;;;;;;;19.20;56.20;;;;;;5019477;28;19925;-60
2021/05/27 02:52:03;;;;;;;;;;;19.20;56.30;;;;;;5019127;28;21827;-60
2021/05/27 02:54:30;;;;;;;;;;;19.20;56.20;;;;;;5014156;28;20024;-60
2021/05/27 02:56:59;;;;;;;;;;;19.20;56.70;;;;;;5014515;28;19944;-60
2021/05/27 02:59:24;;;;;;;;;;;19.20;56.30;;;;;;5007808;28;19921;-57
2021/05/27 03:01:50;;;;;;;;;;;19.20;56.30;;;;;;4991566;28;19917;-57
2021/05/27 03:04:15;;;;;;;;;;;19.20;56.30;;;;;;5015656;28;19931;-57
2021/05/27 03:06:41;;;;;;;;;;;19.20;56.20;;;;;;5016146;28;19917;-56
2021/05/27 03:09:06;;;;;;;;;;;19.20;56.20;;;;;;5017903;28;19917;-58
2021/05/27 03:11:32;;;;;;;;;;;19.20;56.30;;;;;;5018273;28;20441;-56
2021/05/27 03:13:57;;;;;;;;;;;19.20;56.30;;;;;;5021431;28;19925;-58
2021/05/27 03:16:23;;;;;;;;;;;19.20;56.30;;;;;;5020419;28;19917;-59
2021/05/27 03:18:49;;;;;;;;;;;19.20;56.20;;;;;;5018918;28;19932;-60
2021/05/27 03:21:14;;;;;;;;;;;19.20;56.20;;;;;;5013165;28;20272;-58
2021/05/27 03:23:40;;;;;;;;;;;19.20;56.20;;;;;;5016470;28;19923;-58
2021/05/27 03:26:05;;;;;;;;;;;19.20;56.30;;;;;;5011272;28;20340;-58
2021/05/27 03:28:31;;;;;;;;;;;19.20;56.20;;;;;;5001137;28;19920;-59
2021/05/27 03:30:56;;;;;;;;;;;19.20;56.20;;;;;;5013139;28;19923;-56
2021/05/27 03:33:22;;;;;;;;;;;19.20;56.30;;;;;;5019448;28;19925;-58
2021/05/27 03:35:47;;;;;;;;;;;19.20;56.30;;;;;;5020478;28;20416;-60
2021/05/27 03:38:13;;;;;;;;;;;19.10;56.20;;;;;;5021044;28;19961;-59
2021/05/27 03:40:38;;;;;;;;;;;19.10;56.10;;;;;;5022522;28;19921;-60
2021/05/27 03:43:04;;;;;;;;;;;19.20;56.30;;;;;;5017894;28;19918;-60
2021/05/27 03:45:30;;;;;;;;;;;19.20;56.30;;;;;;5021373;28;20385;-59
2021/05/27 03:47:55;;;;;;;;;;;19.10;56.30;;;;;;5017594;28;19917;-59
2021/05/27 03:50:22;;;;;;;;;;;19.10;56.20;;;;;;5013971;28;20436;-59
2021/05/27 03:52:47;;;;;;;;;;;19.20;56.30;;;;;;4987387;28;20535;-59
2021/05/27 03:55:13;;;;;;;;;;;19.10;56.30;;;;;;5021313;28;19917;-59
2021/05/27 03:57:39;;;;;;;;;;;19.10;56.30;;;;;;5007884;28;19921;-60
2021/05/27 04:02:52;;;;;;;;;;;19.10;56.30;;;;;;5004257;28;19960;-60
2021/05/27 04:08:03;;;;;;;;;;;19.10;56.30;;;;;;5021999;28;19975;-54
2021/05/27 04:10:28;;;;;;;;;;;19.10;56.30;;;;;;5011924;28;19948;-57
2021/05/27 04:12:54;;;;;;;;;;;19.10;56.20;;;;;;5033432;22;19975;-53
2021/05/27 04:15:23;;;;;;;;;;;19.10;56.30;;;;;;5014770;28;19925;-57
2021/05/27 04:17:59;;;;;;;;;;;19.10;56.30;;;;;;5013759;28;19990;-57
2021/05/27 04:20:25;;;;;;;;;;;19.10;56.30;;;;;;5018419;28;20514;-55
2021/05/27 04:22:51;;;;;;;;;;;19.10;56.30;;;;;;5019594;28;19925;-56
2021/05/27 04:25:17;;;;;;;;;;;19.10;56.20;;;;;;5015902;28;19928;-57
2021/05/27 04:27:42;;;;;;;;;;;19.10;56.30;;;;;;4994528;28;20381;-55
2021/05/27 04:30:18;;;;;;;;;;;19.10;56.30;;;;;;5013736;28;19917;-57
2021/05/27 04:32:54;;;;;;;;;;;19.10;56.30;;;;;;5016964;28;20022;-57
2021/05/27 04:35:20;;;;;;;;;;;19.10;56.40;;;;;;5020866;28;20441;-56
2021/05/27 04:37:46;;;;;;;;;;;19.10;56.50;;;;;;5015921;28;20004;-57
2021/05/27 04:40:11;;;;;;;;;;;19.00;56.40;;;;;;5018996;28;19917;-57
2021/05/27 04:42:37;;;;;;;;;;;19.10;56.50;;;;;;5017975;28;19918;-54
2021/05/27 04:45:03;;;;;;;;;;;19.00;56.50;;;;;;5016395;28;19925;-56
2021/05/27 04:47:28;;;;;;;;;;;19.00;56.80;;;;;;5003273;28;19918;-57
2021/05/27 04:49:54;;;;;;;;;;;19.00;57.20;;;;;;5009396;28;19921;-56
2021/05/27 04:52:19;;;;;;;;;;;19.00;57.10;;;;;;5019021;28;19944;-57
2021/05/27 04:54:45;;;;;;;;;;;19.00;57.10;;;;;;5017082;28;20302;-58
2021/05/27 04:57:10;;;;;;;;;;;19.00;57.00;;;;;;5021287;28;19918;-59
2021/05/27 04:59:36;;;;;;;;;;;19.00;57.00;;;;;;5014854;28;19971;-54
2021/05/27 05:02:01;;;;;;;;;;;19.00;57.00;;;;;;5021125;28;20362;-57
2021/05/27 05:04:26;;;;;;;;;;;19.00;57.00;;;;;;5021541;28;19921;-56
2021/05/27 05:06:52;;;;;;;;;;;19.00;57.00;;;;;;5024257;28;19929;-58
2021/05/27 05:09:17;;;;;;;;;;;19.00;57.00;;;;;;5021907;28;19932;-57
2021/05/27 05:11:43;;;;;;;;;;;19.10;57.70;;;;;;5012933;28;20374;-53
2021/05/27 05:14:08;;;;;;;;;;;19.00;57.60;;;;;;5014679;28;19921;-57
2021/05/27 05:16:34;;;;;;;;;;;19.10;57.60;;;;;;5025279;28;19921;-57
2021/05/27 05:18:59;;;;;;;;;;;19.00;57.50;;;;;;5024189;28;25108;-56
2021/05/27 05:21:25;;;;;;;;;;;19.00;57.30;;;;;;5018591;28;19922;-56
2021/05/27 05:23:50;;;;;;;;;;;19.00;57.80;;;;;;5013015;28;20571;-58
2021/05/27 05:26:15;;;;;;;;;;;19.00;58.40;;;;;;5012878;28;19914;-57
2021/05/27 05:28:41;;;;;;;;;;;19.00;58.70;;;;;;5018802;28;19917;-56
2021/05/27 05:31:06;;;;;;;;;;;19.00;58.70;;;;;;5012413;28;19920;-57
2021/05/27 05:33:32;;;;;;;;;;;19.00;58.70;;;;;;4996706;28;20417;-56
2021/05/27 05:35:57;;;;;;;;;;;19.10;58.90;;;;;;5013659;28;19917;-57
2021/05/27 05:38:23;;;;;;;;;;;19.00;58.80;;;;;;5013819;28;19922;-55
2021/05/27 05:40:48;;;;;;;;;;;19.00;58.80;;;;;;5011687;28;19930;-56
2021/05/27 05:43:14;;;;;;;;;;;19.10;58.90;;;;;;5019708;28;19921;-55
2021/05/27 05:45:39;;;;;;;;;;;19.10;58.90;;;;;;5022624;28;19966;-56
2021/05/27 05:48:07;;;;;;;;;;;19.00;58.90;;;;;;5016401;28;20719;-55
2021/05/27 05:50:45;;;;;;;;;;;19.00;58.80;;;;;;5019232;28;19917;-56
2021/05/27 05:53:11;;;;;;;;;;;19.00;58.60;;;;;;5010677;28;20452;-53
2021/05/27 05:55:37;;;;;;;;;;;19.00;58.40;;;;;;5003222;28;19917;-57
2021/05/27 05:58:02;;;;;;;;;;;19.00;58.30;;;;;;5007839;28;19979;-56
2021/05/27 06:00:28;;;;;;;;;;;19.00;58.30;;;;;;5014655;28;19914;-56
2021/05/27 06:02:54;;;;;;;;;;;19.00;58.20;;;;;;5013897;28;20371;-55
2021/05/27 06:05:19;;;;;;;;;;;19.10;58.30;;;;;;5007110;28;19923;-55
2021/05/27 06:07:45;;;;;;;;;;;19.00;58.30;;;;;;4998489;28;19914;-55
2021/05/27 06:10:10;;;;;;;;;;;19.00;58.40;;;;;;5015822;28;19913;-61
2021/05/27 06:12:38;;;;;;;;;;;19.00;58.50;;;;;;5009734;28;19976;-55
2021/05/27 06:15:03;;;;;;;;;;;19.00;58.60;;;;;;5013445;28;19917;-53
2021/05/27 06:17:29;;;;;;;;;;;19.00;58.40;;;;;;5004958;28;19917;-57
2021/05/27 06:19:54;;;;;;;;;;;19.00;58.30;;;;;;5005629;28;19921;-55
2021/05/27 06:22:20;;;;;;;;;;;19.00;58.20;;;;;;5020255;28;19939;-54
2021/05/27 06:24:45;;;;;;;;;;;19.00;58.20;;;;;;5009061;28;19920;-55
2021/05/27 06:27:11;;;;;;;;;;;19.00;58.00;;;;;;5014464;28;19921;-55
2021/05/27 06:29:36;;;;;;;;;;;19.00;57.90;;;;;;5011503;28;19918;-58
2021/05/27 06:32:01;;;;;;;;;;;19.00;58.10;;;;;;5022067;28;19924;-55
2021/05/27 06:34:27;;;;;;;;;;;19.00;58.30;;;;;;5018789;28;19924;-56
2021/05/27 06:36:52;;;;;;;;;;;19.10;58.50;;;;;;5013181;28;19922;-57
2021/05/27 06:39:18;;;;;;;;;;;19.00;58.40;;;;;;5007220;28;19943;-54
2021/05/27 06:41:43;;;;;;;;;;;19.10;58.50;;;;;;5015973;28;19917;-55
2021/05/27 06:44:09;;;;;;;;;;;19.10;58.40;;;;;;5014170;28;20747;-56
2021/05/27 06:46:34;;;;;;;;;;;19.00;58.50;;;;;;5014499;28;19913;-57
2021/05/27 06:49:00;;;;;;;;;;;19.10;58.50;;;;;;5017130;28;19913;-55
2021/05/27 06:51:25;;;;;;;;;;;19.00;58.60;;;;;;5006439;28;19920;-57
2021/05/27 06:53:52;;;;;;;;;;;19.00;58.60;;;;;;5012756;28;20324;-55
2021/05/27 06:56:17;;;;;;;;;;;19.10;58.50;;;;;;5016180;28;20382;-56
2021/05/27 06:58:43;;;;;;;;;;;19.00;58.50;;;;;;5014739;28;19956;-54
2021/05/27 07:01:08;;;;;;;;;;;19.00;58.50;;;;;;5013118;28;20413;-56
2021/05/27 07:03:34;;;;;;;;;;;19.00;58.60;;;;;;5017615;28;19913;-54
2021/05/27 07:06:02;;;;;;;;;;;19.00;58.60;;;;;;4996271;28;19913;-57
2021/05/27 07:08:27;;;;;;;;;;;19.00;58.60;;;;;;5012036;28;19925;-52
2021/05/27 07:10:52;;;;;;;;;;;19.00;58.60;;;;;;4992708;28;20571;-57
2021/05/27 07:13:18;;;;;;;;;;;19.00;58.70;;;;;;5014577;28;19921;-55
2021/05/27 07:15:43;;;;;;;;;;;19.00;58.80;;;;;;5017744;28;19963;-56
2021/05/27 07:18:09;;;;;;;;;;;19.00;58.80;;;;;;5019331;28;19928;-56
2021/05/27 07:20:37;;;;;;;;;;;19.00;58.70;;;;;;5019240;28;20378;-57
2021/05/27 07:23:03;;;;;;;;;;;19.00;59.30;;;;;;5014984;28;19952;-55
2021/05/27 07:25:28;;;;;;;;;;;19.00;59.00;;;;;;5019308;28;20596;-53
2021/05/27 07:27:55;;;;;;;;;;;19.00;59.40;;;;;;5014747;28;19920;-57
2021/05/27 07:30:21;;;;;;;;;;;19.00;59.90;;;;;;5004747;28;20013;-56
2021/05/27 07:32:46;;;;;;;;;;;19.00;60.20;;;;;;4991650;28;20004;-56
2021/05/27 07:35:12;;;;;;;;;;;19.00;60.30;;;;;;5016218;28;19921;-54
2021/05/27 07:37:37;;;;;;;;;;;19.00;60.40;;;;;;5004781;28;20575;-55
2021/05/27 07:40:03;;;;;;;;;;;19.00;60.40;;;;;;5016825;28;19921;-56
2021/05/27 07:42:29;;;;;;;;;;;19.00;60.40;;;;;;5016319;28;19918;-57
2021/05/27 07:44:54;;;;;;;;;;;19.00;60.30;;;;;;5005428;28;19914;-53
2021/05/27 07:47:20;;;;;;;;;;;19.00;60.30;;;;;;5015593;28;19920;-57
2021/05/27 07:49:45;;;;;;;;;;;19.10;60.40;;;;;;5015087;28;19913;-57
2021/05/27 07:52:10;;;;;;;;;;;19.00;60.20;;;;;;5010027;28;19917;-58
2021/05/27 07:54:36;;;;;;;;;;;19.00;60.30;;;;;;5016543;28;19913;-57
2021/05/27 07:57:01;;;;;;;;;;;19.10;60.50;;;;;;5017606;28;20400;-57
2021/05/27 07:59:27;;;;;;;;;;;19.00;60.20;;;;;;5019864;28;19959;-57
2021/05/27 08:01:52;;;;;;;;;;;19.00;60.00;;;;;;5014358;28;19928;-53
2021/05/27 08:04:18;;;;;;;;;;;19.00;60.00;;;;;;5014139;28;20540;-53
2021/05/27 08:06:43;;;;;;;;;;;19.00;59.90;;;;;;5012481;28;19921;-57
2021/05/27 08:09:10;;;;;;;;;;;19.00;59.90;;;;;;5016492;28;19914;-55
2021/05/27 08:11:40;;;;;;;;;;;19.00;60.00;;;;;;5016054;28;19920;-56
2021/05/27 08:14:05;;;;;;;;;;;19.00;59.90;;;;;;4994066;28;19965;-57
2021/05/27 08:16:31;;;;;;;;;;;19.00;59.80;;;;;;5014960;28;19913;-55
2021/05/27 08:18:56;;;;;;;;;;;19.00;60.00;;;;;;5015383;28;19917;-56
2021/05/27 08:21:22;;;;;;;;;;;19.00;59.90;;;;;;4998349;28;19918;-55
2021/05/27 08:23:48;;;;;;;;;;;18.90;59.70;;;;;;4986205;28;19921;-57
2021/05/27 08:26:14;;;;;;;;;;;19.00;59.90;;;;;;5012028;28;20633;-57
2021/05/27 08:28:39;;;;;;;;;;;19.00;59.80;;;;;;5015671;28;19913;-57
2021/05/27 08:31:05;;;;;;;;;;;19.00;59.70;;;;;;4996723;28;19917;-56
2021/05/27 08:33:30;;;;;;;;;;;19.00;59.90;;;;;;5010076;28;20455;-56
2021/05/27 08:35:55;;;;;;;;;;;19.00;59.80;;;;;;5007807;28;19918;-57
2021/05/27 08:38:21;;;;;;;;;;;19.00;59.70;;;;;;5002619;28;19917;-57
2021/05/27 08:40:46;;;;;;;;;;;18.90;59.60;;;;;;5015108;28;19920;-57
2021/05/27 08:43:12;;;;;;;;;;;18.90;59.80;;;;;;5013637;28;19921;-60
2021/05/27 08:45:38;;;;;;;;;;;18.90;59.90;;;;;;5018963;28;19914;-55
2021/05/27 08:48:03;;;;;;;;;;;18.90;60.00;;;;;;4996809;28;20003;-56
2021/05/27 08:50:40;;;;;;;;;;;19.00;60.00;;;;;;5014022;28;19994;-58
2021/05/27 08:53:05;;;;;;;;;;;19.00;60.30;;;;;;4988117;28;19917;-57
2021/05/27 08:55:32;;;;;;;;;;;18.90;60.20;;;;;;5015916;28;19939;-57
2021/05/27 08:57:58;;;;;;;;;;;19.00;60.50;;;;;;5011039;28;19972;-57
2021/05/27 09:00:23;;;;;;;;;;;18.90;60.40;;;;;;5012461;28;20634;-56
2021/05/27 09:02:51;;;;;;;;;;;19.00;60.50;;;;;;5023878;28;19967;-57
2021/05/27 09:05:17;;;;;;;;;;;19.00;60.60;;;;;;5022224;28;19913;-57
2021/05/27 09:07:43;;;;;;;;;;;19.00;60.60;;;;;;5013933;28;19918;-58
2021/05/27 09:10:08;;;;;;;;;;;19.00;60.60;;;;;;5014605;28;19925;-55
2021/05/27 09:12:34;;;;;;;;;;;18.90;60.60;;;;;;5019734;28;20314;-56
2021/05/27 09:15:00;;;;;;;;;;;18.90;60.70;;;;;;5011053;28;19914;-55
2021/05/27 09:17:26;;;;;;;;;;;18.90;60.70;;;;;;5006151;28;20560;-58
2021/05/27 09:20:10;;;;;;;;;;;18.90;60.70;;;;;;4995191;28;19925;-54
2021/05/27 09:22:35;;;;;;;;;;;18.90;60.90;;;;;;5005443;28;19921;-57
2021/05/27 09:25:01;;;;;;;;;;;18.90;61.00;;;;;;5008264;28;19929;-54
2021/05/27 09:27:42;;;;;;;;;;;18.90;60.90;;;;;;5011361;28;19945;-57
2021/05/27 09:30:08;;;;;;;;;;;18.90;61.00;;;;;;5010769;28;20380;-57
2021/05/27 09:32:36;;;;;;;;;;;19.00;61.00;;;;;;5010701;28;19929;-55
2021/05/27 09:35:02;;;;;;;;;;;18.90;61.10;;;;;;5010634;28;19921;-57
2021/05/27 09:37:30;;;;;;;;;;;18.90;61.10;;;;;;4993565;28;19917;-57
2021/05/27 09:39:57;;;;;;;;;;;18.90;61.10;;;;;;5006102;28;19918;-56
2021/05/27 09:42:23;;;;;;;;;;;18.90;61.10;;;;;;5011325;28;20570;-57
2021/05/27 09:44:49;;;;;;;;;;;18.90;61.20;;;;;;4996279;28;19920;-54
2021/05/27 09:47:15;;;;;;;;;;;18.90;61.20;;;;;;5014336;28;20278;-56
2021/05/27 09:49:55;;;;;;;;;;;18.90;61.30;;;;;;4996653;28;19913;-56
2021/05/27 09:52:21;;;;;;;;;;;18.90;61.30;;;;;;5020803;28;19956;-58
2021/05/27 09:54:50;;;;;;;;;;;18.90;61.40;;;;;;5008099;28;19914;-57
2021/05/27 09:57:25;;;;;;;;;;;19.00;61.40;;;;;;5017887;28;19982;-57
2021/05/27 09:59:51;;;;;;;;;;;19.00;61.50;;;;;;5016856;28;20491;-57
2021/05/27 10:02:17;;;;;;;;;;;18.90;61.40;;;;;;5006471;28;19918;-57
2021/05/27 10:04:55;;;;;;;;;;;18.90;61.40;;;;;;5016137;28;20627;-58
2021/05/27 10:07:36;;;;;;;;;;;18.90;61.50;;;;;;5022440;28;19982;-57
2021/05/27 10:10:03;;;;;;;;;;;18.90;61.50;;;;;;5005605;28;19918;-57
2021/05/27 10:12:28;;;;;;;;;;;19.00;61.70;;;;;;5007450;28;19932;-55
2021/05/27 10:14:54;;;;;;;;;;;19.00;61.70;;;;;;5033977;22;20046;-52
2021/05/27 10:17:19;;;;;;;;;;;19.00;61.70;;;;;;4994445;28;19917;-57
2021/05/27 10:19:45;;;;;;;;;;;18.90;61.70;;;;;;5001043;28;19932;-57
2021/05/27 10:22:10;;;;;;;;;;;19.00;61.70;;;;;;4988913;28;19914;-58
2021/05/27 10:24:35;;;;;;;;;;;19.00;61.70;;;;;;5014143;28;19913;-57
2021/05/27 10:27:01;;;;;;;;;;;18.90;61.50;;;;;;5008573;28;19914;-56
2021/05/27 10:29:26;;;;;;;;;;;19.00;61.70;;;;;;5012838;28;19921;-58
2021/05/27 10:31:52;;;;;;;;;;;18.90;61.70;;;;;;5014946;28;19940;-57
2021/05/27 10:34:37;;;;;;;;;;;19.00;61.70;;;;;;4990516;28;19917;-57
2021/05/27 10:37:06;;;;;;;;;;;19.00;61.80;;;;;;5006916;28;20016;-59
2021/05/27 10:39:31;;;;;;;;;;;19.00;61.90;;;;;;4996428;28;19924;-59
2021/05/27 10:41:57;;;;;;;;;;;18.90;62.50;;;;;;5013346;28;19913;-60
2021/05/27 10:44:23;;;;;;;;;;;18.90;61.90;;;;;;5017581;28;19917;-60
2021/05/27 10:46:48;;;;;;;;;;;19.00;61.90;;;;;;5003136;28;19937;-59
2021/05/27 10:49:33;;;;;;;;;;;19.00;61.90;;;;;;5009918;28;19948;-59
2021/05/27 10:52:18;;;;;;;;;;;19.00;61.90;;;;;;5017332;28;19921;-59
2021/05/27 10:54:45;;;;;;;;;;;19.00;62.00;;;;;;5012935;28;19996;-58
2021/05/27 10:57:10;;;;;;;;;;;19.00;62.00;;;;;;5012538;28;19940;-59
2021/05/27 10:59:35;;;;;;;;;;;19.00;62.00;;;;;;4996172;28;19925;-60
2021/05/27 11:02:01;;;;;;;;;;;19.00;61.90;;;;;;5021145;28;19927;-59
2021/05/27 11:04:36;;;;;;;;;;;19.00;61.80;;;;;;4992961;28;19939;-61
2021/05/27 11:07:13;;;;;;;;;;;19.00;61.70;;;;;;4994983;28;19918;-60
2021/05/27 11:09:38;;;;;;;;;;;19.00;61.60;;;;;;5007677;28;19918;-60
2021/05/27 11:12:11;;;;;;;;;;;19.00;61.50;;;;;;5006744;28;19919;-59
2021/05/27 11:14:39;;;;;;;;;;;18.90;61.40;;;;;;5014104;28;19925;-60
2021/05/27 11:17:08;;;;;;;;;;;18.90;61.30;;;;;;5008717;28;20263;-60
2021/05/27 11:22:37;;;;;;;;;;;18.90;61.10;;;;;;5015990;28;19953;-57
2021/05/27 11:27:34;;;;;;;;;;;19.00;61.10;;;;;;5011927;28;19953;-56
2021/05/27 11:30:18;;;;;;;;;;;18.90;61.00;;;;;;5021731;28;19947;-57
2021/05/27 11:32:44;;;;;;;;;;;18.90;60.90;;;;;;5012047;28;20438;-59
2021/05/27 11:35:09;;;;;;;;;;;18.90;60.80;;;;;;5014966;28;19996;-58
2021/05/27 11:37:35;;;;;;;;;;;18.90;60.90;;;;;;5022336;28;19983;-59
2021/05/27 11:40:00;;;;;;;;;;;18.90;60.80;;;;;;5007179;28;20132;-58
2021/05/27 11:42:26;;;;;;;;;;;18.90;60.80;;;;;;5010882;28;19920;-58
2021/05/27 11:44:59;;;;;;;;;;;18.90;60.70;;;;;;5012448;28;20434;-55
2021/05/27 11:47:25;;;;;;;;;;;18.90;60.60;;;;;;5012040;28;19917;-60
2021/05/27 11:50:05;;;;;;;;;;;18.90;60.60;;;;;;5001578;28;19946;-56
2021/05/27 11:52:31;;;;;;;;;;;19.00;60.50;;;;;;5007233;28;19914;-59
2021/05/27 11:54:57;;;;;;;;;;;18.90;60.50;;;;;;5009944;28;20369;-60
2021/05/27 11:57:41;;;;;;;;;;;19.00;60.40;;;;;;5013234;28;20382;-59
2021/05/27 12:00:10;;;;;;;;;;;19.00;60.40;;;;;;5021248;28;20719;-59
2021/05/27 12:02:45;;;;;;;;;;;18.90;60.30;;;;;;5007837;28;19917;-57
2021/05/27 12:05:22;;;;;;;;;;;18.90;60.30;;;;;;5006131;28;19913;-59
2021/05/27 12:07:56;;;;;;;;;;;18.90;60.20;;;;;;5007833;28;20370;-58
2021/05/27 12:10:21;;;;;;;;;;;18.90;60.20;;;;;;4997038;28;20438;-57
2021/05/27 12:12:47;;;;;;;;;;;18.90;60.10;;;;;;5015228;28;19919;-57
2021/05/27 12:15:15;;;;;;;;;;;18.90;60.20;;;;;;5016309;28;20712;-58
2021/05/27 12:17:42;;;;;;;;;;;19.00;60.10;;;;;;5008779;28;19956;-59
2021/05/27 12:20:15;;;;;;;;;;;19.00;60.20;;;;;;5014812;28;20004;-57
2021/05/27 12:22:48;;;;;;;;;;;18.90;60.00;;;;;;5011815;28;19944;-56
2021/05/27 12:25:14;;;;;;;;;;;19.00;60.10;;;;;;4984185;28;19920;-58
2021/05/27 12:27:43;;;;;;;;;;;19.00;60.00;;;;;;4994560;28;19917;-55
2021/05/27 12:30:09;;;;;;;;;;;18.90;59.90;;;;;;5004244;28;19913;-58
2021/05/27 12:32:38;;;;;;;;;;;19.00;60.00;;;;;;5010791;28;20383;-56
2021/05/27 12:35:04;;;;;;;;;;;19.00;59.90;;;;;;4994479;28;19953;-57
2021/05/27 12:37:36;;;;;;;;;;;19.00;59.90;;;;;;5013962;28;20047;-55
2021/05/27 12:40:05;;;;;;;;;;;19.00;59.80;;;;;;5009880;28;20166;-57
2021/05/27 12:42:35;;;;;;;;;;;19.00;59.80;;;;;;5015175;28;19917;-59
2021/05/27 12:45:01;;;;;;;;;;;19.00;59.80;;;;;;4998665;28;19945;-56
2021/05/27 12:47:26;;;;;;;;;;;19.00;59.70;;;;;;5011415;28;19939;-57
2021/05/27 12:49:54;;;;;;;;;;;19.00;59.70;;;;;;5004965;28;19927;-56
2021/05/27 12:52:52;;;;;;;;;;;19.00;59.70;;;;;;5008440;28;19913;-54
2021/05/27 12:55:18;;;;;;;;;;;19.00;59.60;;;;;;4987726;28;19921;-60
2021/05/27 12:57:53;;;;;;;;;;;19.00;59.70;;;;;;4989950;28;20453;-59
2021/05/27 13:00:21;;;;;;;;;;;19.00;59.60;;;;;;4984095;28;19926;-60
2021/05/27 13:03:00;;;;;;;;;;;19.00;59.60;;;;;;5016815;28;19913;-59
2021/05/27 13:05:25;;;;;;;;;;;19.00;59.60;;;;;;5012602;28;19956;-57
2021/05/27 13:07:54;;;;;;;;;;;19.00;59.60;;;;;;5011594;28;19913;-53
2021/05/27 13:10:30;;;;;;;;;;;19.00;59.50;;;;;;5010332;28;19913;-57
2021/05/27 13:12:55;;;;;;;;;;;19.00;59.50;;;;;;4998177;28;19918;-58
2021/05/27 13:15:21;;;;;;;;;;;19.00;59.50;;;;;;5004816;28;19931;-59
2021/05/27 13:18:02;;;;;;;;;;;19.00;59.40;;;;;;5019981;28;20401;-56
2021/05/27 13:20:28;;;;;;;;;;;19.00;59.40;;;;;;4994691;28;19925;-59
2021/05/27 13:22:53;;;;;;;;;;;19.00;59.40;;;;;;5021840;28;20004;-57
2021/05/27 13:25:19;;;;;;;;;;;19.00;59.90;;;;;;5016375;28;19968;-59
2021/05/27 13:27:49;;;;;;;;;;;19.00;60.20;;;;;;5018663;28;19970;-63
2021/05/27 13:30:32;;;;;;;;;;;19.00;60.50;;;;;;5009947;28;19913;-61
2021/05/27 13:33:13;;;;;;;;;;;19.00;60.70;;;;;;5020788;28;19913;-59
2021/05/27 13:35:39;;;;;;;;;;;19.00;60.80;;;;;;5005290;28;19959;-59
2021/05/27 13:38:04;;;;;;;;;;;19.00;60.90;;;;;;5011508;28;19921;-56
2021/05/27 13:40:31;;;;;;;;;;;19.00;60.90;;;;;;5015584;28;19917;-58
2021/05/27 13:42:58;;;;;;;;;;;19.00;61.00;;;;;;5020709;28;19929;-58
2021/05/27 13:45:24;;;;;;;;;;;19.00;61.00;;;;;;5016175;28;19913;-57
2021/05/27 13:47:50;;;;;;;;;;;19.00;61.10;;;;;;5016958;28;19914;-55
2021/05/27 13:50:16;;;;;;;;;;;19.00;61.40;;;;;;4991881;28;20305;-54
2021/05/27 13:52:43;;;;;;;;;;;19.00;61.90;;;;;;4990431;28;20000;-56
2021/05/27 13:55:09;;;;;;;;;;;19.00;62.40;;;;;;5011574;28;20393;-56
2021/05/27 13:57:37;;;;;;;;;;;19.00;62.80;;;;;;5010131;28;19921;-58
2021/05/27 14:00:04;;;;;;;;;;;19.00;63.00;;;;;;5011093;28;20044;-58
2021/05/27 14:02:29;;;;;;;;;;;19.10;63.20;;;;;;5012393;28;19940;-54
2021/05/27 14:04:55;;;;;;;;;;;19.10;63.30;;;;;;4986911;28;19921;-59
2021/05/27 14:07:20;;;;;;;;;;;19.00;63.20;;;;;;5016861;28;19921;-56
2021/05/27 14:09:45;;;;;;;;;;;19.10;63.20;;;;;;5004215;28;19914;-57
2021/05/27 14:12:11;;;;;;;;;;;19.00;62.90;;;;;;5007794;28;19964;-57
2021/05/27 14:14:36;;;;;;;;;;;19.00;62.50;;;;;;5013049;28;19918;-56
2021/05/27 14:17:02;;;;;;;;;;;19.00;62.50;;;;;;5015236;28;19917;-58
2021/05/27 14:19:27;;;;;;;;;;;19.00;62.30;;;;;;5008550;28;19922;-55
2021/05/27 14:21:53;;;;;;;;;;;19.10;62.50;;;;;;5011133;28;19967;-58
2021/05/27 14:24:18;;;;;;;;;;;19.00;62.60;;;;;;4990514;28;20644;-56
2021/05/27 14:26:44;;;;;;;;;;;19.10;62.70;;;;;;5016500;28;19959;-59
2021/05/27 14:29:09;;;;;;;;;;;19.10;62.80;;;;;;5017925;28;20379;-59